createdAt,value
2023-02-27T00:02:25.460Z,99540.69
2023-02-27T00:04:52.538Z,99543.09
2023-02-27T00:07:19.149Z,99550.41
2023-02-27T00:09:45.711Z,99556.03
2023-02-27T00:12:12.245Z,99550.66
2023-02-27T00:14:38.904Z,99547.13
2023-02-27T00:17:05.509Z,99554.34
2023-02-27T00:19:32.047Z,99564.19
2023-02-27T00:21:58.554Z,99569.09
2023-02-27T00:24:25.114Z,99563.78
2023-02-27T00:26:51.613Z,99568.22
2023-02-27T00:29:18.235Z,99566.31
2023-02-27T00:31:44.875Z,99572.97
2023-02-27T00:34:11.551Z,99576.28
2023-02-27T00:36:38.067Z,99584.50
2023-02-27T00:39:04.618Z,99585.28
2023-02-27T00:41:31.237Z,99591.81
2023-02-27T00:43:57.766Z,99595.16
2023-02-27T00:46:24.403Z,99562.97
2023-02-27T00:48:50.998Z,99594.34
2023-02-27T00:51:20.120Z,99598.38
2023-02-27T00:53:46.774Z,99604.06
2023-02-27T00:56:13.391Z,99610.78
2023-02-27T00:58:39.930Z,99608.00
2023-02-27T01:01:06.560Z,99612.44
2023-02-27T01:03:33.096Z,99621.13
2023-02-27T01:05:59.687Z,99611.50
2023-02-27T01:08:26.198Z,99619.38
2023-02-27T01:10:54.986Z,99626.81
2023-02-27T01:13:21.936Z,99632.75
2023-02-27T01:15:48.454Z,99637.53
2023-02-27T01:18:15.121Z,99623.63
2023-02-27T01:20:41.700Z,99637.22
2023-02-27T01:23:08.269Z,99632.97
2023-02-27T01:25:34.950Z,99624.34
2023-02-27T01:28:01.491Z,99623.63
2023-02-27T01:30:28.098Z,99624.34
2023-02-27T01:32:54.765Z,99631.81
2023-02-27T01:35:21.298Z,99633.25
2023-02-27T01:37:47.807Z,99632.19
2023-02-27T01:40:14.542Z,99631.16
2023-02-27T01:42:41.065Z,99632.19
2023-02-27T01:45:10.304Z,99632.88
2023-02-27T01:47:40.182Z,99624.88
2023-02-27T01:50:07.706Z,99625.59
2023-02-27T01:52:36.083Z,99637.50
2023-02-27T01:55:06.399Z,99628.75
2023-02-27T01:57:32.959Z,99636.47
2023-02-27T01:59:59.635Z,99627.53
2023-02-27T02:02:32.116Z,99636.78
2023-02-27T02:04:59.160Z,99645.13
2023-02-27T02:07:25.741Z,99646.88
2023-02-27T02:09:55.301Z,99648.41
2023-02-27T02:12:26.812Z,99649.13
2023-02-27T02:14:53.407Z,99654.69
2023-02-27T02:17:31.936Z,99658.88
2023-02-27T02:20:07.651Z,99658.09
2023-02-27T02:22:58.368Z,99659.94
2023-02-27T02:26:18.379Z,99669.84
2023-02-27T02:29:20.252Z,99674.66
2023-02-27T02:31:55.591Z,99672.91
2023-02-27T02:34:31.096Z,99680.38
2023-02-27T02:37:00.291Z,99684.66
2023-02-27T02:39:32.824Z,99683.50
2023-02-27T02:42:25.318Z,99687.69
2023-02-27T02:44:57.153Z,99689.16
2023-02-27T02:47:42.508Z,99682.19
2023-02-27T02:50:12.671Z,99686.81
2023-02-27T02:52:59.033Z,99694.41
2023-02-27T02:55:37.385Z,99688.50
2023-02-27T02:58:09.799Z,99692.50
2023-02-27T03:00:45.584Z,99698.59
2023-02-27T03:03:18.766Z,99701.63
2023-02-27T03:05:53.022Z,99707.63
2023-02-27T03:08:24.872Z,99703.38
2023-02-27T03:11:06.221Z,99706.59
2023-02-27T03:13:51.400Z,99709.03
2023-02-27T03:16:26.191Z,99710.38
2023-02-27T03:19:13.468Z,99715.38
2023-02-27T03:22:09.330Z,99722.06
2023-02-27T03:24:43.444Z,99730.44
2023-02-27T03:27:10.238Z,99733.56
2023-02-27T03:30:12.144Z,99736.09
2023-02-27T03:33:06.413Z,99736.69
2023-02-27T03:35:38.862Z,99735.28
2023-02-27T03:38:32.745Z,99738.94
2023-02-27T03:41:08.277Z,99739.91
2023-02-27T03:43:43.782Z,99743.13
2023-02-27T03:46:21.211Z,99747.22
2023-02-27T03:48:47.867Z,99744.72
2023-02-27T03:51:20.639Z,99755.66
2023-02-27T03:54:02.964Z,99752.28
2023-02-27T03:56:37.133Z,99751.22
2023-02-27T03:59:04.363Z,99746.78
2023-02-27T04:01:31.139Z,99751.81
2023-02-27T04:04:03.196Z,99757.56
2023-02-27T04:06:49.335Z,99765.03
2023-02-27T04:09:30.489Z,99772.69
2023-02-27T04:12:24.916Z,99775.81
2023-02-27T04:15:12.646Z,99785.22
2023-02-27T04:17:54.506Z,99792.59
2023-02-27T04:20:27.346Z,99790.09
2023-02-27T04:23:16.908Z,99798.53
2023-02-27T04:26:14.695Z,99796.66
2023-02-27T04:28:46.611Z,99797.47
2023-02-27T04:31:24.563Z,99798.25
2023-02-27T04:33:57.340Z,99798.06
2023-02-27T04:36:31.049Z,99811.63
2023-02-27T04:39:08.673Z,99804.63
2023-02-27T04:41:50.070Z,99809.88
2023-02-27T04:44:19.414Z,99814.72
2023-02-27T04:46:48.709Z,99821.72
2023-02-27T04:49:42.460Z,99822.78
2023-02-27T04:52:14.065Z,99825.22
2023-02-27T04:54:54.296Z,99829.59
2023-02-27T04:57:31.934Z,99827.06
2023-02-27T05:00:04.916Z,99833.72
2023-02-27T05:02:38.182Z,99835.97
2023-02-27T05:05:11.380Z,99839.56
2023-02-27T05:07:44.985Z,99845.41
2023-02-27T05:10:42.540Z,99848.13
2023-02-27T05:13:40.052Z,99854.31
2023-02-27T05:16:29.327Z,99860.81
2023-02-27T05:18:56.524Z,99863.34
2023-02-27T05:21:26.162Z,99869.66
2023-02-27T05:24:11.045Z,99880.09
2023-02-27T05:26:40.234Z,99885.25
2023-02-27T05:29:18.031Z,99878.75
2023-02-27T05:31:55.345Z,99885.53
2023-02-27T05:34:27.348Z,99892.31
2023-02-27T05:37:01.583Z,99894.06
2023-02-27T05:39:30.331Z,99887.09
2023-02-27T05:42:02.259Z,99882.22
2023-02-27T05:44:39.593Z,99891.84
2023-02-27T05:47:10.608Z,99893.59
2023-02-27T05:49:46.465Z,99897.75
2023-02-27T05:52:17.884Z,99905.81
2023-02-27T05:54:57.456Z,99908.53
2023-02-27T05:57:30.862Z,99915.41
2023-02-27T06:00:15.963Z,99915.59
2023-02-27T06:02:45.103Z,99905.09
2023-02-27T06:05:14.188Z,99907.03
2023-02-27T06:07:40.743Z,99913.75
2023-02-27T06:10:08.006Z,99913.84
2023-02-27T06:12:34.517Z,99905.28
2023-02-27T06:15:01.090Z,99905.50
2023-02-27T06:17:27.685Z,99910.91
2023-02-27T06:19:54.211Z,99920.50
2023-02-27T06:22:20.792Z,99922.25
2023-02-27T06:24:47.359Z,99925.63
2023-02-27T06:27:13.881Z,99923.91
2023-02-27T06:29:40.514Z,99921.38
2023-02-27T06:32:07.144Z,99914.91
2023-02-27T06:34:33.720Z,99925.28
2023-02-27T06:37:02.122Z,99924.31
2023-02-27T06:39:29.866Z,99933.81
2023-02-27T06:41:56.385Z,99936.94
2023-02-27T06:44:23.579Z,99940.44
2023-02-27T06:46:50.127Z,99932.88
2023-02-27T06:49:17.012Z,99956.94
2023-02-27T06:51:45.042Z,99955.34
2023-02-27T06:54:11.926Z,99952.41
2023-02-27T06:56:38.448Z,99961.94
2023-02-27T06:59:05.336Z,99957.34
2023-02-27T07:01:31.908Z,99951.59
2023-02-27T07:03:58.573Z,99951.41
2023-02-27T07:07:31.134Z,99956.28
2023-02-27T07:09:11.721Z,99956.88
2023-02-27T07:11:38.309Z,99950.16
2023-02-27T07:14:05.294Z,99958.72
2023-02-27T07:16:32.047Z,99955.53
2023-02-27T07:18:58.945Z,99946.56
2023-02-27T07:21:25.724Z,99941.88
2023-02-27T07:23:52.286Z,99946.16
2023-02-27T07:26:18.869Z,99962.63
2023-02-27T07:28:45.396Z,99956.09
2023-02-27T07:31:12.114Z,99952.25
2023-02-27T07:33:38.724Z,99945.44
2023-02-27T07:36:05.569Z,99944.81
2023-02-27T07:38:32.398Z,99951.69
2023-02-27T07:40:59.183Z,99963.66
2023-02-27T07:43:26.016Z,99961.91
2023-02-27T07:45:52.602Z,99958.00
2023-02-27T07:48:19.415Z,99971.75
2023-02-27T07:50:46.025Z,99963.56
2023-02-27T07:53:13.416Z,99969.19
2023-02-27T07:55:40.089Z,99967.94
2023-02-27T07:58:06.836Z,99971.00
2023-02-27T08:00:33.411Z,99970.56
2023-02-27T08:03:00.587Z,99967.34
2023-02-27T08:05:27.143Z,99969.94
2023-02-27T08:07:53.642Z,99980.06
2023-02-27T08:10:20.301Z,99984.94
2023-02-27T08:12:46.896Z,99983.47
2023-02-27T08:15:13.882Z,99981.72
2023-02-27T08:17:40.690Z,99979.13
2023-02-27T08:20:08.023Z,99990.28
2023-02-27T08:22:34.575Z,99999.38
2023-02-27T08:25:01.312Z,100002.59
2023-02-27T08:27:27.886Z,99998.66
2023-02-27T08:29:54.414Z,99998.84
2023-02-27T08:32:21.253Z,100003.63
2023-02-27T08:34:47.887Z,100006.16
2023-02-27T08:37:14.470Z,99987.31
2023-02-27T08:39:41.034Z,99991.34
2023-02-27T08:42:07.714Z,100002.47
2023-02-27T08:44:34.404Z,99996.47
2023-02-27T08:47:00.966Z,99997.09
2023-02-27T08:49:27.514Z,99992.81
2023-02-27T08:51:54.420Z,100002.47
2023-02-27T08:54:21.106Z,100010.38
2023-02-27T08:56:48.181Z,100012.53
2023-02-27T08:59:15.178Z,100017.00
2023-02-27T09:01:43.694Z,100013.66
2023-02-27T09:04:11.728Z,100018.72
2023-02-27T09:06:38.303Z,100021.69
2023-02-27T09:09:05.318Z,100014.25
2023-02-27T09:11:31.884Z,100026.06
2023-02-27T09:13:58.901Z,100022.72
2023-02-27T09:16:25.779Z,100016.19
2023-02-27T09:18:52.798Z,100017.25
2023-02-27T09:21:20.374Z,100014.72
2023-02-27T09:23:47.065Z,100012.34
2023-02-27T09:26:13.682Z,100007.28
2023-02-27T09:28:40.228Z,100003.91
2023-02-27T09:31:08.045Z,100013.03
2023-02-27T09:33:35.857Z,100014.19
2023-02-27T09:36:02.535Z,100016.25
2023-02-27T09:38:29.141Z,100007.34
2023-02-27T09:40:56.820Z,100017.28
2023-02-27T09:43:31.149Z,100017.72
2023-02-27T09:45:59.186Z,100019.84
2023-02-27T09:48:42.748Z,100020.44
2023-02-27T09:51:09.399Z,100024.38
2023-02-27T09:53:41.506Z,100030.63
2023-02-27T09:56:15.258Z,100030.09
2023-02-27T09:59:02.578Z,100026.72
2023-02-27T10:01:41.440Z,100029.31
2023-02-27T10:04:25.169Z,100031.59
2023-02-27T10:07:01.078Z,100033.72
2023-02-27T10:09:39.642Z,100038.44
2023-02-27T10:12:38.150Z,100046.63
2023-02-27T10:15:15.608Z,100040.53
2023-02-27T10:17:42.101Z,100042.53
2023-02-27T10:20:16.920Z,100043.25
2023-02-27T10:22:46.453Z,100044.72
2023-02-27T10:25:30.382Z,100047.00
2023-02-27T10:28:09.076Z,100041.69
2023-02-27T10:30:36.251Z,100042.06
2023-02-27T10:33:15.750Z,100059.47
2023-02-27T10:35:44.548Z,100048.59
2023-02-27T10:38:27.009Z,100058.00
2023-02-27T10:40:56.518Z,100070.91
2023-02-27T10:43:23.133Z,100062.91
2023-02-27T10:45:49.780Z,100066.56
2023-02-27T10:48:17.115Z,100066.22
2023-02-27T10:50:45.864Z,100065.25
2023-02-27T10:53:18.150Z,100062.38
2023-02-27T10:55:57.571Z,100065.69
2023-02-27T10:58:24.885Z,100056.44
2023-02-27T11:00:56.984Z,100059.03
2023-02-27T11:03:29.915Z,100061.16
2023-02-27T11:06:05.444Z,100053.72
2023-02-27T11:08:33.939Z,100053.72
2023-02-27T11:11:00.452Z,100053.31
2023-02-27T11:13:33.447Z,100051.03
2023-02-27T11:16:10.900Z,100049.97
2023-02-27T11:18:40.192Z,100060.28
2023-02-27T11:21:09.700Z,100058.44
2023-02-27T11:23:36.494Z,100051.38
2023-02-27T11:26:17.696Z,100055.56
2023-02-27T11:28:44.299Z,100059.22
2023-02-27T11:31:22.251Z,100064.66
2023-02-27T11:33:57.605Z,100062.13
2023-02-27T11:36:39.205Z,100055.56
2023-02-27T11:39:06.053Z,100051.72
2023-02-27T11:41:34.538Z,100053.72
2023-02-27T11:44:02.805Z,100053.97
2023-02-27T11:46:46.763Z,100052.41
2023-02-27T11:49:34.790Z,100050.03
2023-02-27T11:52:18.667Z,100058.28
2023-02-27T11:54:55.446Z,100055.38
2023-02-27T11:57:33.761Z,100054.09
2023-02-27T12:00:03.624Z,100061.56
2023-02-27T12:02:47.110Z,100062.69
2023-02-27T12:05:27.911Z,100066.16
2023-02-27T12:08:11.923Z,100073.13
2023-02-27T12:11:07.831Z,100073.13
2023-02-27T12:13:44.051Z,100075.22
2023-02-27T12:16:19.629Z,100069.00
2023-02-27T12:19:31.838Z,100081.22
2023-02-27T12:22:21.344Z,100080.22
2023-02-27T12:24:52.932Z,100082.47
2023-02-27T12:27:25.000Z,100087.19
2023-02-27T12:30:00.322Z,100095.06
2023-02-27T12:32:45.979Z,100088.50
2023-02-27T12:35:21.507Z,100097.97
2023-02-27T12:37:48.609Z,100092.94
2023-02-27T12:40:17.603Z,100090.13
2023-02-27T12:43:11.671Z,100104.00
2023-02-27T12:45:56.484Z,100107.22
2023-02-27T12:48:41.277Z,100112.09
2023-02-27T12:51:31.545Z,100097.66
2023-02-27T12:54:16.580Z,100107.53
2023-02-27T12:56:55.654Z,100103.25
2023-02-27T13:00:00.074Z,100109.06
2023-02-27T13:02:44.564Z,100115.91
2023-02-27T13:05:17.180Z,100118.31
2023-02-27T13:08:21.553Z,100118.84
2023-02-27T13:10:58.836Z,100127.91
2023-02-27T13:13:48.265Z,100124.09
2023-02-27T13:16:21.764Z,100133.03
2023-02-27T13:18:48.964Z,100130.88
2023-02-27T13:21:42.701Z,100130.28
2023-02-27T13:24:27.777Z,100129.88
2023-02-27T13:27:08.326Z,100125.69
2023-02-27T13:29:47.615Z,100122.19
2023-02-27T13:32:43.214Z,100116.09
2023-02-27T13:35:41.708Z,100128.13
2023-02-27T13:38:48.239Z,100130.09
2023-02-27T13:41:20.827Z,100129.16
2023-02-27T13:43:52.605Z,100130.97
2023-02-27T13:46:25.315Z,100127.75
2023-02-27T13:49:04.082Z,100135.25
2023-02-27T13:51:41.169Z,100127.47
2023-02-27T13:54:07.680Z,100124.28
2023-02-27T13:56:34.513Z,100122.69
2023-02-27T13:59:21.466Z,100125.22
2023-02-27T14:01:55.920Z,100126.88
2023-02-27T14:04:27.517Z,100130.88
2023-02-27T14:07:02.834Z,100124.00
2023-02-27T14:09:42.633Z,100127.22
2023-02-27T14:12:42.540Z,100130.25
2023-02-27T14:15:22.906Z,100133.94
2023-02-27T14:18:05.853Z,100143.84
2023-02-27T14:20:39.117Z,100142.78
2023-02-27T14:23:17.581Z,100141.03
2023-02-27T14:25:45.969Z,100141.03
2023-02-27T14:28:27.927Z,100134.72
2023-02-27T14:31:19.190Z,100129.66
2023-02-27T14:33:48.518Z,100137.84
2023-02-27T14:36:26.733Z,100136.47
2023-02-27T14:38:58.807Z,100136.09
2023-02-27T14:41:48.783Z,100146.38
2023-02-27T14:44:23.993Z,100143.56
2023-02-27T14:46:53.748Z,100149.47
2023-02-27T14:49:24.832Z,100145.78
2023-02-27T14:51:51.344Z,100150.84
2023-02-27T14:54:21.576Z,100146.28
2023-02-27T14:57:06.207Z,100152.59
2023-02-27T14:59:51.579Z,100156.84
2023-02-27T15:02:30.684Z,100163.69
2023-02-27T15:05:03.421Z,100171.25
2023-02-27T15:07:33.293Z,100162.31
2023-02-27T15:10:05.210Z,100174.63
2023-02-27T15:12:36.531Z,100172.81
2023-02-27T15:15:05.827Z,100179.50
2023-02-27T15:17:41.519Z,100172.69
2023-02-27T15:20:30.174Z,100180.16
2023-02-27T15:23:01.719Z,100191.84
2023-02-27T15:25:33.269Z,100191.63
2023-02-27T15:28:05.518Z,100193.16
2023-02-27T15:30:32.687Z,100203.75
2023-02-27T15:33:00.860Z,100198.09
2023-02-27T15:35:41.641Z,100203.03
2023-02-27T15:38:33.804Z,100207.31
2023-02-27T15:41:02.192Z,100212.16
2023-02-27T15:43:30.492Z,100205.16
2023-02-27T15:45:58.318Z,100215.25
2023-02-27T15:48:25.751Z,100226.91
2023-02-27T15:50:56.856Z,100227.56
2023-02-27T15:53:26.346Z,100226.47
2023-02-27T15:55:59.240Z,100235.25
2023-02-27T15:58:30.046Z,100235.81
2023-02-27T16:01:01.722Z,100245.16
2023-02-27T16:03:35.964Z,100261.81
2023-02-27T16:06:03.291Z,100251.53
2023-02-27T16:08:31.422Z,100258.13
2023-02-27T16:10:58.242Z,100262.50
2023-02-27T16:13:27.764Z,100267.66
2023-02-27T16:16:25.558Z,100267.34
2023-02-27T16:18:57.744Z,100277.22
2023-02-27T16:21:26.702Z,100285.56
2023-02-27T16:23:54.298Z,100281.19
2023-02-27T16:26:29.303Z,100289.97
2023-02-27T16:29:04.260Z,100301.81
2023-02-27T16:31:35.292Z,100295.00
2023-02-27T16:34:13.565Z,100307.63
2023-02-27T16:36:42.084Z,100312.56
2023-02-27T16:39:14.593Z,100309.06
2023-02-27T16:41:41.125Z,100314.50
2023-02-27T16:44:07.664Z,100313.66
2023-02-27T16:46:34.195Z,100310.81
2023-02-27T16:49:14.185Z,100321.78
2023-02-27T16:51:45.629Z,100325.94
2023-02-27T16:54:13.700Z,100322.56
2023-02-27T16:56:40.678Z,100322.44
2023-02-27T16:59:07.995Z,100321.34
2023-02-27T17:01:34.757Z,100324.88
2023-02-27T17:04:01.569Z,100323.47
2023-02-27T17:06:28.675Z,100334.72
2023-02-27T17:08:56.024Z,100329.47
2023-02-27T17:11:22.683Z,100338.03
2023-02-27T17:13:49.264Z,100345.81
2023-02-27T17:16:16.037Z,100358.44
2023-02-27T17:18:42.668Z,100351.63
2023-02-27T17:21:09.263Z,100359.97
2023-02-27T17:23:35.822Z,100364.25
2023-02-27T17:26:02.524Z,100371.81
2023-02-27T17:28:29.294Z,100373.59
2023-02-27T17:30:55.914Z,100370.06
2023-02-27T17:33:22.475Z,100372.50
2023-02-27T17:35:49.173Z,100377.41
2023-02-27T17:38:15.902Z,100377.97
2023-02-27T17:40:42.435Z,100386.31
2023-02-27T17:43:09.068Z,100391.13
2023-02-27T17:45:35.616Z,100386.66
2023-02-27T17:48:02.169Z,100396.19
2023-02-27T17:50:28.857Z,100388.19
2023-02-27T17:52:55.389Z,100402.88
2023-02-27T17:55:21.973Z,100399.25
2023-02-27T17:57:48.629Z,100405.19
2023-02-27T18:00:15.493Z,100411.13
2023-02-27T18:02:44.482Z,100427.78
2023-02-27T18:05:11.376Z,100434.16
2023-02-27T18:07:38.143Z,100422.09
2023-02-27T18:10:06.719Z,100433.94
2023-02-27T18:12:33.487Z,100427.56
2023-02-27T18:15:00.380Z,100434.56
2023-02-27T18:17:27.005Z,100439.84
2023-02-27T18:19:53.612Z,100433.06
2023-02-27T18:22:22.074Z,100424.72
2023-02-27T18:24:49.389Z,100439.84
2023-02-27T18:27:15.989Z,100437.00
2023-02-27T18:29:43.833Z,100445.88
2023-02-27T18:32:10.697Z,100442.47
2023-02-27T18:34:39.992Z,100453.66
2023-02-27T18:37:07.492Z,100448.59
2023-02-27T18:39:34.027Z,100442.38
2023-02-27T18:42:00.881Z,100456.06
2023-02-27T18:44:27.499Z,100448.50
2023-02-27T18:46:55.049Z,100453.66
2023-02-27T18:49:21.673Z,100460.25
2023-02-27T18:51:48.903Z,100476.66
2023-02-27T18:54:15.766Z,100476.47
2023-02-27T18:56:42.317Z,100470.72
2023-02-27T18:59:09.042Z,100479.28
2023-02-27T19:01:38.275Z,100489.63
2023-02-27T19:04:07.442Z,100487.84
2023-02-27T19:06:36.906Z,100486.09
2023-02-27T19:09:12.640Z,100486.09
2023-02-27T19:11:39.644Z,100487.28
2023-02-27T19:14:08.752Z,100486.31
2023-02-27T19:16:35.716Z,100476.00
2023-02-27T19:19:04.998Z,100487.84
2023-02-27T19:21:32.626Z,100476.53
2023-02-27T19:24:01.715Z,100491.38
2023-02-27T19:26:29.434Z,100486.97
2023-02-27T19:28:56.332Z,100480.81
2023-02-27T19:31:25.988Z,100486.09
2023-02-27T19:33:52.811Z,100489.78
2023-02-27T19:36:20.925Z,100494.19
2023-02-27T19:38:47.816Z,100498.69
2023-02-27T19:41:16.948Z,100508.00
2023-02-27T19:43:43.886Z,100499.47
2023-02-27T19:46:13.952Z,100503.31
2023-02-27T19:48:41.432Z,100496.72
2023-02-27T19:51:10.542Z,100509.78
2023-02-27T19:53:38.880Z,100499.88
2023-02-27T19:56:08.573Z,100502.06
2023-02-27T19:58:36.237Z,100510.63
2023-02-27T20:01:03.991Z,100515.44
2023-02-27T20:03:30.693Z,100503.59
2023-02-27T20:05:57.388Z,100519.84
2023-02-27T20:08:24.040Z,100519.94
2023-02-27T20:11:03.588Z,100520.72
2023-02-27T20:13:30.867Z,100519.59
2023-02-27T20:15:59.444Z,100522.53
2023-02-27T20:18:27.572Z,100514.63
2023-02-27T20:21:06.519Z,100520.91
2023-02-27T20:23:35.371Z,100518.03
2023-02-27T20:26:11.854Z,100522.63
2023-02-27T20:28:39.337Z,100531.28
2023-02-27T20:31:12.576Z,100524.13
2023-02-27T20:33:39.989Z,100516.81
2023-02-27T20:36:09.214Z,100529.41
2023-02-27T20:38:39.144Z,100530.97
2023-02-27T20:41:28.241Z,100539.78
2023-02-27T20:43:56.018Z,100535.28
2023-02-27T20:46:25.461Z,100532.91
2023-02-27T20:48:52.191Z,100536.28
2023-02-27T20:51:23.651Z,100528.72
2023-02-27T20:53:52.466Z,100535.03
2023-02-27T20:56:22.446Z,100528.69
2023-02-27T20:58:49.606Z,100550.94
2023-02-27T21:01:17.685Z,100556.97
2023-02-27T21:03:46.607Z,100548.16
2023-02-27T21:06:15.373Z,100553.44
2023-02-27T21:08:44.344Z,100559.78
2023-02-27T21:11:12.424Z,100559.78
2023-02-27T21:13:39.713Z,100563.44
2023-02-27T21:16:09.708Z,100562.66
2023-02-27T21:18:37.736Z,100566.56
2023-02-27T21:21:11.061Z,100570.09
2023-02-27T21:23:41.588Z,100568.47
2023-02-27T21:26:21.872Z,100581.81
2023-02-27T21:28:58.019Z,100581.44
2023-02-27T21:31:28.575Z,100570.91
2023-02-27T21:33:55.612Z,100584.75
2023-02-27T21:36:36.896Z,100572.66
2023-02-27T21:39:06.571Z,100586.38
2023-02-27T21:41:34.776Z,100589.00
2023-02-27T21:44:03.801Z,100586.50
2023-02-27T21:46:32.247Z,100579.22
2023-02-27T21:48:59.142Z,100579.00
2023-02-27T21:51:38.940Z,100577.22
2023-02-27T21:54:06.729Z,100584.56
2023-02-27T21:56:33.787Z,100580.50
2023-02-27T21:59:01.940Z,100582.50
2023-02-27T22:01:29.798Z,100579.00
2023-02-27T22:03:57.015Z,100592.34
2023-02-27T22:06:25.999Z,100592.34
2023-02-27T22:08:57.211Z,100594.13
2023-02-27T22:11:25.267Z,100585.31
2023-02-27T22:13:51.925Z,100594.50
2023-02-27T22:16:19.697Z,100594.63
2023-02-27T22:18:47.414Z,100598.91
2023-02-27T22:21:17.188Z,100594.13
2023-02-27T22:23:44.657Z,100596.50
2023-02-27T22:26:13.976Z,100593.75
2023-02-27T22:28:41.427Z,100595.63
2023-02-27T22:31:08.107Z,100597.00
2023-02-27T22:33:35.470Z,100599.63
2023-02-27T22:36:06.089Z,100596.91
2023-02-27T22:38:32.711Z,100603.69
2023-02-27T22:41:07.755Z,100602.19
2023-02-27T22:43:34.932Z,100592.75
2023-02-27T22:46:02.005Z,100588.59
2023-02-27T22:48:28.551Z,100582.44
2023-02-27T22:51:07.056Z,100585.72
2023-02-27T22:53:38.502Z,100598.66
2023-02-27T22:56:13.899Z,100597.16
2023-02-27T22:58:41.867Z,100596.28
2023-02-27T23:01:13.418Z,100591.00
2023-02-27T23:03:42.373Z,100584.84
2023-02-27T23:06:11.959Z,100592.22
2023-02-27T23:08:39.032Z,100591.47
2023-02-27T23:11:05.815Z,100592.34
2023-02-27T23:13:32.401Z,100588.59
2023-02-27T23:15:59.722Z,100591.88
2023-02-27T23:18:26.438Z,100586.06
2023-02-27T23:20:53.062Z,100581.03
2023-02-27T23:23:19.643Z,100582.56
2023-02-27T23:25:46.239Z,100578.06
2023-02-27T23:28:12.892Z,100593.16
2023-02-27T23:30:39.469Z,100574.03
2023-02-27T23:33:06.017Z,100574.28
2023-02-27T23:35:32.686Z,100568.00
2023-02-27T23:38:00.588Z,100571.50
2023-02-27T23:40:28.510Z,100574.69
2023-02-27T23:43:13.904Z,100569.41
2023-02-27T23:45:40.564Z,100579.22
2023-02-27T23:48:07.682Z,100581.63
2023-02-27T23:50:38.214Z,100584.16
2023-02-27T23:53:06.080Z,100584.00
2023-02-27T23:55:35.331Z,100587.28
2023-02-27T23:58:04.366Z,100587.53
